Yucca Valley, California
Current Conditions -  °F | °C
As of 6:56 PM on Thursday 18 Dec 2014 (Local Time) from KNXP Reporting Station
Clear Clear  
Wind Chill: 42°   Ceiling: Unl
Heat Index: 46°   Visibility: 10mi
Dew Point: 35°   Wind: 8mph
Humidity: 66%   Direction: 240°WSW
Pressure: 30.27"   Gusts: NA
Location:  34.12°N, 116.41°W
Report Text: KNXP 190256Z AUTO 24007KT 10SM CLR 08/02 A3027 RMK AO2 SLP239 T00780017 51018
Loading
Personal Weather Stations






























Interactive Weather Map New forecast layout! Learn more

10-Day Weather Forecast

Advertisements
Track Severe Weather on mobile